Terminal Aerodrome Forecast
Issued by NWS

Home | Current Version | Previous Version | Text Only | Print | Product List | Glossary On
Versions: 1 2 3 4 5 6 7 8 9 10 11 12 13 14 15 16 17 18 19
000
FTUS43 KILX 050520
TAFBMI
TAF
KBMI 050520Z 0506/0606 VRB03KT 6SM BR SKC
     FM050900 VRB03KT 4SM BR SKC
     FM051300 15005KT P6SM SCT030
     FM051500 17008KT P6SM SCT035
     FM052200 18008KT P6SM SKC=

USA.gov is the U.S. government's official web portal to all federal, state and local government web resources and services.